Red Scaffold, South Dakota
Current Conditions -  °F | °C
As of 11:55 PM on Friday 28 Nov 2014 (Local Time) from KPHP Reporting Station
Clear Clear  
Wind Chill: 38°   Ceiling: Unl
Heat Index: 43°   Visibility: 10mi
Dew Point: 27°   Wind: 9mph
Humidity: 53%   Direction: 270°W
Pressure: 29.44"   Gusts: NA
Location:  44.534°N, 102.24°W
Report Text: KPHP 290655Z AUTO 27008KT 10SM CLR 06/M03 A2944 RMK AO2 SLP969 T00611028 401721056
Loading
Personal Weather Stations






























Interactive Weather Map New forecast layout! Learn more

10-Day Weather Forecast

Advertisements
Track Severe Weather on mobile